sensor_id;sensor_type;location;lat;lon;timestamp;P1;durP1;ratioP1;P2;durP2;ratioP2
12114;SDS011;6121;49.810;6.418;2023-03-13T00:00:51;52.85;;;7.47;;
12114;SDS011;6121;49.810;6.418;2023-03-13T00:03:18;63.57;;;8.73;;
12114;SDS011;6121;49.810;6.418;2023-03-13T00:05:44;59.20;;;8.20;;
12114;SDS011;6121;49.810;6.418;2023-03-13T00:08:10;69.07;;;9.32;;
12114;SDS011;6121;49.810;6.418;2023-03-13T00:10:37;58.13;;;8.05;;
12114;SDS011;6121;49.810;6.418;2023-03-13T00:13:04;55.92;;;7.80;;
12114;SDS011;6121;49.810;6.418;2023-03-13T00:15:33;78.55;;;10.57;;
12114;SDS011;6121;49.810;6.418;2023-03-13T00:18:00;46.20;;;6.72;;
12114;SDS011;6121;49.810;6.418;2023-03-13T00:20:26;69.72;;;9.52;;
12114;SDS011;6121;49.810;6.418;2023-03-13T00:22:52;52.42;;;7.55;;
12114;SDS011;6121;49.810;6.418;2023-03-13T00:25:18;62.22;;;8.57;;
12114;SDS011;6121;49.810;6.418;2023-03-13T00:27:43;60.95;;;8.48;;
12114;SDS011;6121;49.810;6.418;2023-03-13T00:30:09;65.70;;;9.18;;
12114;SDS011;6121;49.810;6.418;2023-03-13T00:32:42;70.80;;;9.65;;
12114;SDS011;6121;49.810;6.418;2023-03-13T00:35:13;71.35;;;9.75;;
12114;SDS011;6121;49.810;6.418;2023-03-13T00:37:39;54.97;;;7.85;;
12114;SDS011;6121;49.810;6.418;2023-03-13T00:40:06;48.42;;;7.03;;
12114;SDS011;6121;49.810;6.418;2023-03-13T00:42:33;77.97;;;10.63;;
12114;SDS011;6121;49.810;6.418;2023-03-13T00:44:59;57.25;;;8.13;;
12114;SDS011;6121;49.810;6.418;2023-03-13T00:47:25;68.30;;;9.33;;
12114;SDS011;6121;49.810;6.418;2023-03-13T00:49:52;58.25;;;8.15;;
12114;SDS011;6121;49.810;6.418;2023-03-13T00:52:18;73.22;;;9.95;;
12114;SDS011;6121;49.810;6.418;2023-03-13T00:54:43;60.22;;;8.35;;
12114;SDS011;6121;49.810;6.418;2023-03-13T00:57:09;85.83;;;11.40;;
12114;SDS011;6121;49.810;6.418;2023-03-13T00:59:35;64.57;;;8.80;;
12114;SDS011;6121;49.810;6.418;2023-03-13T01:02:01;59.20;;;8.20;;
12114;SDS011;6121;49.810;6.418;2023-03-13T01:04:27;75.80;;;10.23;;
12114;SDS011;6121;49.810;6.418;2023-03-13T01:06:52;56.03;;;7.88;;
12114;SDS011;6121;49.810;6.418;2023-03-13T01:09:19;64.40;;;8.82;;
12114;SDS011;6121;49.810;6.418;2023-03-13T01:11:44;62.57;;;8.60;;
12114;SDS011;6121;49.810;6.418;2023-03-13T01:14:16;62.15;;;8.50;;
12114;SDS011;6121;49.810;6.418;2023-03-13T01:16:44;70.07;;;9.43;;
12114;SDS011;6121;49.810;6.418;2023-03-13T01:19:12;55.75;;;7.82;;
12114;SDS011;6121;49.810;6.418;2023-03-13T01:21:41;61.20;;;8.40;;
12114;SDS011;6121;49.810;6.418;2023-03-13T01:24:08;47.85;;;6.93;;
12114;SDS011;6121;49.810;6.418;2023-03-13T01:26:34;72.15;;;9.57;;
12114;SDS011;6121;49.810;6.418;2023-03-13T01:29:00;54.97;;;7.70;;
12114;SDS011;6121;49.810;6.418;2023-03-13T01:31:28;72.90;;;9.73;;
12114;SDS011;6121;49.810;6.418;2023-03-13T01:33:57;45.87;;;6.60;;
12114;SDS011;6121;49.810;6.418;2023-03-13T01:36:25;66.07;;;8.93;;
12114;SDS011;6121;49.810;6.418;2023-03-13T01:38:53;58.63;;;8.10;;
12114;SDS011;6121;49.810;6.418;2023-03-13T01:41:21;58.83;;;8.15;;
12114;SDS011;6121;49.810;6.418;2023-03-13T01:43:47;64.30;;;8.80;;
12114;SDS011;6121;49.810;6.418;2023-03-13T01:46:15;67.20;;;9.20;;
12114;SDS011;6121;49.810;6.418;2023-03-13T01:49:17;59.47;;;8.18;;
12114;SDS011;6121;49.810;6.418;2023-03-13T01:52:01;55.08;;;7.78;;
12114;SDS011;6121;49.810;6.418;2023-03-13T01:54:48;65.50;;;8.90;;
12114;SDS011;6121;49.810;6.418;2023-03-13T01:57:38;78.88;;;10.55;;
12114;SDS011;6121;49.810;6.418;2023-03-13T02:00:14;51.07;;;7.20;;
12114;SDS011;6121;49.810;6.418;2023-03-13T02:02:48;70.65;;;9.50;;
12114;SDS011;6121;49.810;6.418;2023-03-13T02:05:18;67.68;;;9.18;;
12114;SDS011;6121;49.810;6.418;2023-03-13T02:07:52;57.17;;;7.90;;
12114;SDS011;6121;49.810;6.418;2023-03-13T02:10:23;60.72;;;8.30;;
12114;SDS011;6121;49.810;6.418;2023-03-13T02:12:50;62.28;;;8.52;;
12114;SDS011;6121;49.810;6.418;2023-03-13T02:15:17;61.38;;;8.48;;
12114;SDS011;6121;49.810;6.418;2023-03-13T02:17:47;57.75;;;7.97;;
12114;SDS011;6121;49.810;6.418;2023-03-13T02:20:15;56.95;;;7.85;;
12114;SDS011;6121;49.810;6.418;2023-03-13T02:25:27;60.17;;;8.23;;
12114;SDS011;6121;49.810;6.418;2023-03-13T02:28:03;50.65;;;7.22;;
12114;SDS011;6121;49.810;6.418;2023-03-13T02:30:32;68.80;;;9.20;;
12114;SDS011;6121;49.810;6.418;2023-03-13T02:32:59;53.97;;;7.50;;
12114;SDS011;6121;49.810;6.418;2023-03-13T02:35:26;62.92;;;8.57;;
12114;SDS011;6121;49.810;6.418;2023-03-13T02:37:54;51.80;;;7.20;;
12114;SDS011;6121;49.810;6.418;2023-03-13T02:40:25;63.50;;;8.60;;
12114;SDS011;6121;49.810;6.418;2023-03-13T02:42:55;58.15;;;7.95;;
12114;SDS011;6121;49.810;6.418;2023-03-13T02:45:24;58.63;;;8.07;;
12114;SDS011;6121;49.810;6.418;2023-03-13T02:47:50;59.10;;;8.13;;
12114;SDS011;6121;49.810;6.418;2023-03-13T02:50:16;59.73;;;8.17;;
12114;SDS011;6121;49.810;6.418;2023-03-13T02:53:03;80.60;;;10.60;;
12114;SDS011;6121;49.810;6.418;2023-03-13T02:55:34;61.53;;;8.37;;
12114;SDS011;6121;49.810;6.418;2023-03-13T02:58:06;53.20;;;7.40;;
12114;SDS011;6121;49.810;6.418;2023-03-13T03:00:34;63.00;;;8.52;;
12114;SDS011;6121;49.810;6.418;2023-03-13T03:03:00;47.72;;;6.78;;
12114;SDS011;6121;49.810;6.418;2023-03-13T03:05:26;63.75;;;8.75;;
12114;SDS011;6121;49.810;6.418;2023-03-13T03:07:52;59.33;;;8.10;;
12114;SDS011;6121;49.810;6.418;2023-03-13T03:10:18;62.50;;;8.57;;
12114;SDS011;6121;49.810;6.418;2023-03-13T03:12:44;67.97;;;9.13;;
12114;SDS011;6121;49.810;6.418;2023-03-13T03:15:10;62.40;;;8.50;;
12114;SDS011;6121;49.810;6.418;2023-03-13T03:17:41;80.70;;;10.70;;
12114;SDS011;6121;49.810;6.418;2023-03-13T03:20:08;50.72;;;7.07;;
12114;SDS011;6121;49.810;6.418;2023-03-13T03:22:37;73.32;;;9.82;;
12114;SDS011;6121;49.810;6.418;2023-03-13T03:25:05;61.65;;;8.35;;
12114;SDS011;6121;49.810;6.418;2023-03-13T03:27:32;71.03;;;9.48;;
12114;SDS011;6121;49.810;6.418;2023-03-13T03:29:59;48.22;;;6.78;;
12114;SDS011;6121;49.810;6.418;2023-03-13T03:32:24;77.73;;;10.27;;
12114;SDS011;6121;49.810;6.418;2023-03-13T03:34:50;64.50;;;8.68;;
12114;SDS011;6121;49.810;6.418;2023-03-13T03:37:16;57.10;;;7.88;;
12114;SDS011;6121;49.810;6.418;2023-03-13T03:39:42;70.25;;;9.45;;
12114;SDS011;6121;49.810;6.418;2023-03-13T03:42:08;64.57;;;8.77;;
12114;SDS011;6121;49.810;6.418;2023-03-13T03:44:34;60.73;;;8.23;;
12114;SDS011;6121;49.810;6.418;2023-03-13T03:47:02;63.80;;;8.60;;
12114;SDS011;6121;49.810;6.418;2023-03-13T03:49:32;59.10;;;8.13;;
12114;SDS011;6121;49.810;6.418;2023-03-13T03:51:58;61.13;;;8.35;;
12114;SDS011;6121;49.810;6.418;2023-03-13T03:54:32;56.83;;;7.85;;
12114;SDS011;6121;49.810;6.418;2023-03-13T03:56:58;62.35;;;8.50;;
12114;SDS011;6121;49.810;6.418;2023-03-13T03:59:24;57.77;;;7.90;;
12114;SDS011;6121;49.810;6.418;2023-03-13T04:01:56;69.63;;;9.32;;
12114;SDS011;6121;49.810;6.418;2023-03-13T04:04:25;65.97;;;8.80;;
12114;SDS011;6121;49.810;6.418;2023-03-13T04:06:58;59.88;;;8.07;;
12114;SDS011;6121;49.810;6.418;2023-03-13T04:09:27;62.33;;;8.48;;
12114;SDS011;6121;49.810;6.418;2023-03-13T04:11:54;66.22;;;8.93;;
12114;SDS011;6121;49.810;6.418;2023-03-13T04:14:19;47.47;;;6.65;;
12114;SDS011;6121;49.810;6.418;2023-03-13T04:16:46;78.43;;;10.40;;
12114;SDS011;6121;49.810;6.418;2023-03-13T04:19:14;49.67;;;6.93;;
12114;SDS011;6121;49.810;6.418;2023-03-13T04:21:41;69.93;;;9.30;;
12114;SDS011;6121;49.810;6.418;2023-03-13T04:24:16;48.17;;;6.80;;
12114;SDS011;6121;49.810;6.418;2023-03-13T04:26:43;80.32;;;10.63;;
12114;SDS011;6121;49.810;6.418;2023-03-13T04:29:10;54.47;;;7.60;;
12114;SDS011;6121;49.810;6.418;2023-03-13T04:31:59;73.80;;;9.88;;
12114;SDS011;6121;49.810;6.418;2023-03-13T04:35:01;61.38;;;8.40;;
12114;SDS011;6121;49.810;6.418;2023-03-13T04:37:40;74.47;;;9.83;;
12114;SDS011;6121;49.810;6.418;2023-03-13T04:40:27;59.00;;;8.05;;
12114;SDS011;6121;49.810;6.418;2023-03-13T04:43:07;61.35;;;8.30;;
12114;SDS011;6121;49.810;6.418;2023-03-13T04:45:56;52.28;;;7.22;;
12114;SDS011;6121;49.810;6.418;2023-03-13T04:48:43;71.28;;;9.50;;
12114;SDS011;6121;49.810;6.418;2023-03-13T04:51:35;59.60;;;8.13;;
12114;SDS011;6121;49.810;6.418;2023-03-13T04:54:33;56.65;;;7.80;;
12114;SDS011;6121;49.810;6.418;2023-03-13T04:57:22;73.38;;;9.88;;
12114;SDS011;6121;49.810;6.418;2023-03-13T04:59:53;65.18;;;8.80;;
12114;SDS011;6121;49.810;6.418;2023-03-13T05:02:39;68.38;;;9.23;;
12114;SDS011;6121;49.810;6.418;2023-03-13T05:05:23;53.80;;;7.50;;
12114;SDS011;6121;49.810;6.418;2023-03-13T05:07:51;71.10;;;9.48;;
12114;SDS011;6121;49.810;6.418;2023-03-13T05:10:33;57.08;;;7.88;;
12114;SDS011;6121;49.810;6.418;2023-03-13T05:13:01;57.80;;;7.88;;
12114;SDS011;6121;49.810;6.418;2023-03-13T05:15:38;67.53;;;9.18;;
12114;SDS011;6121;49.810;6.418;2023-03-13T05:18:22;58.45;;;8.07;;
12114;SDS011;6121;49.810;6.418;2023-03-13T05:21:18;56.63;;;7.85;;
12114;SDS011;6121;49.810;6.418;2023-03-13T05:24:16;43.03;;;6.35;;
12114;SDS011;6121;49.810;6.418;2023-03-13T05:26:59;75.90;;;10.15;;
12114;SDS011;6121;49.810;6.418;2023-03-13T05:29:41;57.07;;;8.00;;
12114;SDS011;6121;49.810;6.418;2023-03-13T05:32:21;55.42;;;7.80;;
12114;SDS011;6121;49.810;6.418;2023-03-13T05:34:58;66.15;;;9.00;;
12114;SDS011;6121;49.810;6.418;2023-03-13T05:37:46;70.97;;;9.70;;
12114;SDS011;6121;49.810;6.418;2023-03-13T05:40:31;68.80;;;9.23;;
12114;SDS011;6121;49.810;6.418;2023-03-13T05:43:29;72.57;;;9.77;;
12114;SDS011;6121;49.810;6.418;2023-03-13T05:46:01;57.95;;;8.07;;
12114;SDS011;6121;49.810;6.418;2023-03-13T05:48:50;68.70;;;9.33;;
12114;SDS011;6121;49.810;6.418;2023-03-13T05:51:35;72.30;;;9.65;;
12114;SDS011;6121;49.810;6.418;2023-03-13T05:54:24;52.53;;;7.43;;
12114;SDS011;6121;49.810;6.418;2023-03-13T05:57:08;71.65;;;9.75;;
12114;SDS011;6121;49.810;6.418;2023-03-13T05:59:49;73.05;;;9.73;;
12114;SDS011;6121;49.810;6.418;2023-03-13T06:02:33;66.00;;;9.00;;
12114;SDS011;6121;49.810;6.418;2023-03-13T06:05:00;72.32;;;9.82;;
12114;SDS011;6121;49.810;6.418;2023-03-13T06:07:26;57.88;;;7.97;;
12114;SDS011;6121;49.810;6.418;2023-03-13T06:09:52;63.88;;;8.75;;
12114;SDS011;6121;49.810;6.418;2023-03-13T06:12:18;68.70;;;9.40;;
12114;SDS011;6121;49.810;6.418;2023-03-13T06:14:44;62.90;;;8.63;;
12114;SDS011;6121;49.810;6.418;2023-03-13T06:17:12;68.63;;;9.40;;
12114;SDS011;6121;49.810;6.418;2023-03-13T06:19:38;61.55;;;8.68;;
12114;SDS011;6121;49.810;6.418;2023-03-13T06:22:04;69.05;;;9.38;;
12114;SDS011;6121;49.810;6.418;2023-03-13T06:24:30;77.45;;;10.25;;
12114;SDS011;6121;49.810;6.418;2023-03-13T06:26:56;104.65;;;13.55;;
12114;SDS011;6121;49.810;6.418;2023-03-13T06:29:22;70.00;;;9.57;;
12114;SDS011;6121;49.810;6.418;2023-03-13T06:31:49;89.60;;;11.95;;
12114;SDS011;6121;49.810;6.418;2023-03-13T06:34:15;76.30;;;10.32;;
12114;SDS011;6121;49.810;6.418;2023-03-13T06:36:41;82.03;;;10.93;;
12114;SDS011;6121;49.810;6.418;2023-03-13T06:39:08;70.90;;;9.60;;
12114;SDS011;6121;49.810;6.418;2023-03-13T06:41:34;78.68;;;10.48;;
12114;SDS011;6121;49.810;6.418;2023-03-13T06:44:00;81.82;;;10.90;;
12114;SDS011;6121;49.810;6.418;2023-03-13T06:46:26;64.38;;;8.85;;
12114;SDS011;6121;49.810;6.418;2023-03-13T06:48:52;86.05;;;11.35;;
12114;SDS011;6121;49.810;6.418;2023-03-13T06:51:19;84.38;;;11.23;;
12114;SDS011;6121;49.810;6.418;2023-03-13T06:53:47;79.50;;;10.68;;
12114;SDS011;6121;49.810;6.418;2023-03-13T06:56:13;84.18;;;11.18;;
12114;SDS011;6121;49.810;6.418;2023-03-13T06:58:39;81.57;;;10.83;;
12114;SDS011;6121;49.810;6.418;2023-03-13T07:01:07;68.95;;;9.45;;
12114;SDS011;6121;49.810;6.418;2023-03-13T07:03:34;77.57;;;10.63;;
12114;SDS011;6121;49.810;6.418;2023-03-13T07:06:01;90.25;;;12.10;;
12114;SDS011;6121;49.810;6.418;2023-03-13T07:08:28;83.40;;;11.15;;
12114;SDS011;6121;49.810;6.418;2023-03-13T07:10:57;86.38;;;11.52;;
12114;SDS011;6121;49.810;6.418;2023-03-13T07:13:24;73.32;;;10.02;;
12114;SDS011;6121;49.810;6.418;2023-03-13T07:15:50;181.93;;;22.63;;
12114;SDS011;6121;49.810;6.418;2023-03-13T07:18:17;87.40;;;11.55;;
12114;SDS011;6121;49.810;6.418;2023-03-13T07:20:44;90.40;;;11.98;;
12114;SDS011;6121;49.810;6.418;2023-03-13T07:23:15;83.78;;;11.20;;
12114;SDS011;6121;49.810;6.418;2023-03-13T07:25:41;106.57;;;14.02;;
12114;SDS011;6121;49.810;6.418;2023-03-13T07:28:07;90.82;;;11.98;;
12114;SDS011;6121;49.810;6.418;2023-03-13T07:30:33;93.00;;;12.30;;
12114;SDS011;6121;49.810;6.418;2023-03-13T07:32:58;107.93;;;14.07;;
12114;SDS011;6121;49.810;6.418;2023-03-13T07:35:24;112.10;;;14.60;;
12114;SDS011;6121;49.810;6.418;2023-03-13T07:37:50;84.53;;;11.30;;
12114;SDS011;6121;49.810;6.418;2023-03-13T07:40:16;103.97;;;13.68;;
12114;SDS011;6121;49.810;6.418;2023-03-13T07:42:42;98.93;;;13.03;;
12114;SDS011;6121;49.810;6.418;2023-03-13T07:45:08;118.13;;;15.23;;
12114;SDS011;6121;49.810;6.418;2023-03-13T07:47:34;105.40;;;13.75;;
12114;SDS011;6121;49.810;6.418;2023-03-13T07:50:00;99.50;;;13.02;;
12114;SDS011;6121;49.810;6.418;2023-03-13T07:52:26;86.50;;;11.63;;
12114;SDS011;6121;49.810;6.418;2023-03-13T07:54:52;111.30;;;14.50;;
12114;SDS011;6121;49.810;6.418;2023-03-13T07:57:18;111.63;;;14.57;;
12114;SDS011;6121;49.810;6.418;2023-03-13T07:59:45;80.28;;;10.82;;
12114;SDS011;6121;49.810;6.418;2023-03-13T08:02:11;90.23;;;12.13;;
12114;SDS011;6121;49.810;6.418;2023-03-13T08:04:38;88.37;;;11.73;;
12114;SDS011;6121;49.810;6.418;2023-03-13T08:07:10;93.80;;;12.43;;
12114;SDS011;6121;49.810;6.418;2023-03-13T08:09:36;103.80;;;13.50;;
12114;SDS011;6121;49.810;6.418;2023-03-13T08:12:02;108.93;;;14.35;;
12114;SDS011;6121;49.810;6.418;2023-03-13T08:14:28;80.88;;;10.95;;
12114;SDS011;6121;49.810;6.418;2023-03-13T08:16:54;112.90;;;14.63;;
12114;SDS011;6121;49.810;6.418;2023-03-13T08:19:20;91.78;;;12.15;;
12114;SDS011;6121;49.810;6.418;2023-03-13T08:21:46;96.37;;;12.80;;
12114;SDS011;6121;49.810;6.418;2023-03-13T08:24:12;90.43;;;12.10;;
12114;SDS011;6121;49.810;6.418;2023-03-13T08:26:38;80.90;;;10.83;;
12114;SDS011;6121;49.810;6.418;2023-03-13T08:29:06;88.28;;;11.57;;
12114;SDS011;6121;49.810;6.418;2023-03-13T08:31:35;126.30;;;16.20;;
12114;SDS011;6121;49.810;6.418;2023-03-13T08:34:03;124.25;;;16.15;;
12114;SDS011;6121;49.810;6.418;2023-03-13T08:36:33;135.27;;;17.33;;
12114;SDS011;6121;49.810;6.418;2023-03-13T08:39:01;81.78;;;11.02;;
12114;SDS011;6121;49.810;6.418;2023-03-13T08:41:30;227.82;;;27.98;;
12114;SDS011;6121;49.810;6.418;2023-03-13T08:43:59;202.38;;;25.08;;
12114;SDS011;6121;49.810;6.418;2023-03-13T08:46:25;209.07;;;26.00;;
12114;SDS011;6121;49.810;6.418;2023-03-13T08:48:53;149.80;;;18.98;;
12114;SDS011;6121;49.810;6.418;2023-03-13T08:51:20;230.18;;;28.20;;
12114;SDS011;6121;49.810;6.418;2023-03-13T08:53:47;122.70;;;15.88;;
12114;SDS011;6121;49.810;6.418;2023-03-13T08:56:15;133.98;;;17.10;;
12114;SDS011;6121;49.810;6.418;2023-03-13T08:58:42;142.60;;;18.30;;
12114;SDS011;6121;49.810;6.418;2023-03-13T09:01:10;231.48;;;28.52;;
12114;SDS011;6121;49.810;6.418;2023-03-13T09:03:38;141.30;;;18.15;;
12114;SDS011;6121;49.810;6.418;2023-03-13T09:06:05;147.52;;;18.70;;
12114;SDS011;6121;49.810;6.418;2023-03-13T09:08:31;143.40;;;18.35;;
12114;SDS011;6121;49.810;6.418;2023-03-13T09:10:59;207.32;;;25.67;;
12114;SDS011;6121;49.810;6.418;2023-03-13T09:13:26;133.15;;;17.15;;
12114;SDS011;6121;49.810;6.418;2023-03-13T09:16:01;140.55;;;18.05;;
12114;SDS011;6121;49.810;6.418;2023-03-13T09:18:32;134.18;;;17.13;;
12114;SDS011;6121;49.810;6.418;2023-03-13T09:20:58;194.63;;;24.15;;
12114;SDS011;6121;49.810;6.418;2023-03-13T09:23:24;149.63;;;19.08;;
12114;SDS011;6121;49.810;6.418;2023-03-13T09:25:54;146.20;;;18.60;;
12114;SDS011;6121;49.810;6.418;2023-03-13T09:28:22;129.15;;;16.65;;
12114;SDS011;6121;49.810;6.418;2023-03-13T09:30:49;155.80;;;19.75;;
12114;SDS011;6121;49.810;6.418;2023-03-13T09:33:16;137.23;;;17.58;;
12114;SDS011;6121;49.810;6.418;2023-03-13T09:35:42;158.93;;;20.00;;
12114;SDS011;6121;49.810;6.418;2023-03-13T09:38:11;129.48;;;16.65;;
12114;SDS011;6121;49.810;6.418;2023-03-13T09:40:40;145.25;;;18.50;;
12114;SDS011;6121;49.810;6.418;2023-03-13T09:46:05;98.43;;;13.02;;
12114;SDS011;6121;49.810;6.418;2023-03-13T09:48:39;145.93;;;18.48;;
12114;SDS011;6121;49.810;6.418;2023-03-13T09:51:14;258.85;;;31.73;;
12114;SDS011;6121;49.810;6.418;2023-03-13T09:53:51;135.07;;;17.33;;
12114;SDS011;6121;49.810;6.418;2023-03-13T09:56:43;133.27;;;17.08;;
12114;SDS011;6121;49.810;6.418;2023-03-13T09:59:18;146.35;;;18.63;;
12114;SDS011;6121;49.810;6.418;2023-03-13T10:01:51;205.80;;;25.40;;
12114;SDS011;6121;49.810;6.418;2023-03-13T10:04:24;128.27;;;16.42;;
12114;SDS011;6121;49.810;6.418;2023-03-13T10:07:04;152.68;;;19.30;;
12114;SDS011;6121;49.810;6.418;2023-03-13T10:09:34;116.70;;;15.15;;
12114;SDS011;6121;49.810;6.418;2023-03-13T10:12:22;161.82;;;20.50;;
12114;SDS011;6121;49.810;6.418;2023-03-13T10:17:45;153.82;;;19.42;;
12114;SDS011;6121;49.810;6.418;2023-03-13T10:20:32;126.75;;;16.27;;
12114;SDS011;6121;49.810;6.418;2023-03-13T10:23:04;147.43;;;18.70;;
12114;SDS011;6121;49.810;6.418;2023-03-13T10:25:39;129.75;;;16.67;;
12114;SDS011;6121;49.810;6.418;2023-03-13T10:28:09;140.30;;;17.83;;
12114;SDS011;6121;49.810;6.418;2023-03-13T10:30:42;141.45;;;18.00;;
12114;SDS011;6121;49.810;6.418;2023-03-13T10:35:43;141.18;;;17.95;;
12114;SDS011;6121;49.810;6.418;2023-03-13T10:38:13;135.85;;;17.40;;
12114;SDS011;6121;49.810;6.418;2023-03-13T10:40:55;142.27;;;18.20;;
12114;SDS011;6121;49.810;6.418;2023-03-13T10:43:27;140.73;;;17.92;;
12114;SDS011;6121;49.810;6.418;2023-03-13T10:45:54;119.13;;;15.60;;
12114;SDS011;6121;49.810;6.418;2023-03-13T10:48:24;123.03;;;15.98;;
12114;SDS011;6121;49.810;6.418;2023-03-13T10:50:55;177.82;;;22.60;;
12114;SDS011;6121;49.810;6.418;2023-03-13T10:55:57;118.68;;;15.48;;
12114;SDS011;6121;49.810;6.418;2023-03-13T10:58:34;158.98;;;20.27;;
12114;SDS011;6121;49.810;6.418;2023-03-13T11:01:13;227.05;;;28.15;;
12114;SDS011;6121;49.810;6.418;2023-03-13T11:03:46;152.52;;;19.60;;
12114;SDS011;6121;49.810;6.418;2023-03-13T11:06:22;144.25;;;18.63;;
12114;SDS011;6121;49.810;6.418;2023-03-13T11:08:54;156.88;;;19.88;;
12114;SDS011;6121;49.810;6.418;2023-03-13T11:11:26;212.25;;;26.55;;
12114;SDS011;6121;49.810;6.418;2023-03-13T11:14:06;133.35;;;17.25;;
12114;SDS011;6121;49.810;6.418;2023-03-13T11:16:33;144.20;;;18.48;;
12114;SDS011;6121;49.810;6.418;2023-03-13T11:22:14;197.40;;;24.88;;
12114;SDS011;6121;49.810;6.418;2023-03-13T11:30:15;132.95;;;17.30;;
12114;SDS011;6121;49.810;6.418;2023-03-13T11:35:19;147.35;;;18.90;;
12114;SDS011;6121;49.810;6.418;2023-03-13T11:38:12;172.20;;;21.83;;
12114;SDS011;6121;49.810;6.418;2023-03-13T11:40:49;158.57;;;20.10;;
12114;SDS011;6121;49.810;6.418;2023-03-13T11:43:24;143.85;;;18.52;;
12114;SDS011;6121;49.810;6.418;2023-03-13T11:49:18;123.85;;;16.23;;
12114;SDS011;6121;49.810;6.418;2023-03-13T11:57:23;148.13;;;19.00;;
12114;SDS011;6121;49.810;6.418;2023-03-13T12:02:43;152.25;;;19.58;;
12114;SDS011;6121;49.810;6.418;2023-03-13T12:05:21;125.87;;;16.47;;
12114;SDS011;6121;49.810;6.418;2023-03-13T12:10:26;123.03;;;16.00;;
12114;SDS011;6121;49.810;6.418;2023-03-13T12:13:18;159.27;;;20.40;;
12114;SDS011;6121;49.810;6.418;2023-03-13T12:15:51;156.48;;;20.05;;
12114;SDS011;6121;49.810;6.418;2023-03-13T12:18:35;144.05;;;18.52;;
12114;SDS011;6121;49.810;6.418;2023-03-13T12:21:12;202.02;;;25.33;;
12114;SDS011;6121;49.810;6.418;2023-03-13T12:26:47;142.15;;;18.33;;
12114;SDS011;6121;49.810;6.418;2023-03-13T12:31:41;208.43;;;26.03;;
12114;SDS011;6121;49.810;6.418;2023-03-13T12:34:15;126.30;;;16.55;;
12114;SDS011;6121;49.810;6.418;2023-03-13T12:36:50;133.45;;;17.23;;
12114;SDS011;6121;49.810;6.418;2023-03-13T12:45:01;121.88;;;16.00;;
12114;SDS011;6121;49.810;6.418;2023-03-13T12:50:04;123.67;;;16.10;;
12114;SDS011;6121;49.810;6.418;2023-03-13T12:53:41;143.90;;;18.38;;
12114;SDS011;6121;49.810;6.418;2023-03-13T13:01:41;230.40;;;28.40;;
12114;SDS011;6121;49.810;6.418;2023-03-13T13:04:16;142.93;;;18.35;;
12114;SDS011;6121;49.810;6.418;2023-03-13T13:28:51;132.73;;;17.02;;
12114;SDS011;6121;49.810;6.418;2023-03-13T13:37:04;157.20;;;19.85;;
12114;SDS011;6121;49.810;6.418;2023-03-13T13:39:51;132.10;;;17.13;;
12114;SDS011;6121;49.810;6.418;2023-03-13T13:47:41;172.60;;;22.02;;
12114;SDS011;6121;49.810;6.418;2023-03-13T13:50:17;132.20;;;17.27;;
12114;SDS011;6121;49.810;6.418;2023-03-13T13:52:47;150.73;;;19.55;;
12114;SDS011;6121;49.810;6.418;2023-03-13T13:58:01;185.45;;;23.48;;
12114;SDS011;6121;49.810;6.418;2023-03-13T14:00:34;125.57;;;16.40;;
12114;SDS011;6121;49.810;6.418;2023-03-13T14:03:15;134.30;;;17.60;;
12114;SDS011;6121;49.810;6.418;2023-03-13T14:05:47;144.40;;;18.52;;
12114;SDS011;6121;49.810;6.418;2023-03-13T14:08:20;138.57;;;17.92;;
12114;SDS011;6121;49.810;6.418;2023-03-13T14:13:40;122.22;;;16.05;;
12114;SDS011;6121;49.810;6.418;2023-03-13T14:16:21;134.00;;;17.40;;
12114;SDS011;6121;49.810;6.418;2023-03-13T14:18:50;131.45;;;17.27;;
12114;SDS011;6121;49.810;6.418;2023-03-13T14:21:25;192.57;;;24.35;;
12114;SDS011;6121;49.810;6.418;2023-03-13T14:23:51;140.97;;;18.27;;
12114;SDS011;6121;49.810;6.418;2023-03-13T14:26:21;149.18;;;19.08;;
12114;SDS011;6121;49.810;6.418;2023-03-13T14:28:52;151.33;;;19.57;;
12114;SDS011;6121;49.810;6.418;2023-03-13T14:33:49;140.20;;;18.20;;
12114;SDS011;6121;49.810;6.418;2023-03-13T14:36:17;133.80;;;17.33;;
12114;SDS011;6121;49.810;6.418;2023-03-13T14:38:50;150.20;;;19.27;;
12114;SDS011;6121;49.810;6.418;2023-03-13T14:41:23;208.25;;;25.98;;
12114;SDS011;6121;49.810;6.418;2023-03-13T14:43:53;140.27;;;18.15;;
12114;SDS011;6121;49.810;6.418;2023-03-13T14:46:28;141.68;;;18.38;;
12114;SDS011;6121;49.810;6.418;2023-03-13T14:48:56;158.38;;;20.13;;
12114;SDS011;6121;49.810;6.418;2023-03-13T14:51:29;223.70;;;27.80;;
12114;SDS011;6121;49.810;6.418;2023-03-13T14:53:56;147.90;;;19.07;;
12114;SDS011;6121;49.810;6.418;2023-03-13T14:56:34;153.32;;;19.63;;
12114;SDS011;6121;49.810;6.418;2023-03-13T14:59:14;184.32;;;23.50;;
12114;SDS011;6121;49.810;6.418;2023-03-13T15:01:43;266.63;;;32.80;;
12114;SDS011;6121;49.810;6.418;2023-03-13T15:04:10;137.10;;;17.85;;
12114;SDS011;6121;49.810;6.418;2023-03-13T15:06:35;126.47;;;16.48;;
12114;SDS011;6121;49.810;6.418;2023-03-13T15:09:18;156.93;;;19.98;;
12114;SDS011;6121;49.810;6.418;2023-03-13T15:11:53;236.43;;;29.40;;
12114;SDS011;6121;49.810;6.418;2023-03-13T15:14:32;147.10;;;19.13;;
12114;SDS011;6121;49.810;6.418;2023-03-13T15:17:00;187.93;;;23.73;;
12114;SDS011;6121;49.810;6.418;2023-03-13T15:19:29;168.77;;;21.55;;
12114;SDS011;6121;49.810;6.418;2023-03-13T15:21:56;254.70;;;31.63;;
12114;SDS011;6121;49.810;6.418;2023-03-13T15:24:22;162.95;;;20.92;;
12114;SDS011;6121;49.810;6.418;2023-03-13T15:26:48;181.00;;;22.77;;
12114;SDS011;6121;49.810;6.418;2023-03-13T15:29:14;172.98;;;21.95;;
12114;SDS011;6121;49.810;6.418;2023-03-13T15:31:42;245.20;;;30.33;;
12114;SDS011;6121;49.810;6.418;2023-03-13T15:34:09;153.50;;;19.52;;
12114;SDS011;6121;49.810;6.418;2023-03-13T15:36:37;145.30;;;18.88;;
12114;SDS011;6121;49.810;6.418;2023-03-13T15:39:14;164.25;;;20.83;;
12114;SDS011;6121;49.810;6.418;2023-03-13T15:41:43;258.75;;;31.73;;
12114;SDS011;6121;49.810;6.418;2023-03-13T15:44:09;147.45;;;19.10;;
12114;SDS011;6121;49.810;6.418;2023-03-13T15:46:36;133.43;;;17.23;;
12114;SDS011;6121;49.810;6.418;2023-03-13T15:49:02;144.60;;;18.65;;
12114;SDS011;6121;49.810;6.418;2023-03-13T15:51:29;222.40;;;27.65;;
12114;SDS011;6121;49.810;6.418;2023-03-13T15:53:55;149.07;;;19.10;;
12114;SDS011;6121;49.810;6.418;2023-03-13T15:56:21;168.88;;;21.58;;
12114;SDS011;6121;49.810;6.418;2023-03-13T15:58:48;153.80;;;19.63;;
12114;SDS011;6121;49.810;6.418;2023-03-13T16:01:15;196.90;;;24.75;;
12114;SDS011;6121;49.810;6.418;2023-03-13T16:03:42;137.45;;;17.75;;
12114;SDS011;6121;49.810;6.418;2023-03-13T16:06:18;163.43;;;20.83;;
12114;SDS011;6121;49.810;6.418;2023-03-13T16:08:52;147.30;;;18.98;;
12114;SDS011;6121;49.810;6.418;2023-03-13T16:11:18;207.38;;;25.90;;
12114;SDS011;6121;49.810;6.418;2023-03-13T16:13:44;126.65;;;16.55;;
12114;SDS011;6121;49.810;6.418;2023-03-13T16:16:13;145.60;;;18.90;;
12114;SDS011;6121;49.810;6.418;2023-03-13T16:18:46;140.48;;;18.30;;
12114;SDS011;6121;49.810;6.418;2023-03-13T16:21:21;185.77;;;23.58;;
12114;SDS011;6121;49.810;6.418;2023-03-13T16:23:57;138.68;;;17.92;;
12114;SDS011;6121;49.810;6.418;2023-03-13T16:26:24;166.25;;;21.35;;
12114;SDS011;6121;49.810;6.418;2023-03-13T16:28:53;151.83;;;19.60;;
12114;SDS011;6121;49.810;6.418;2023-03-13T16:31:20;221.10;;;27.70;;
12114;SDS011;6121;49.810;6.418;2023-03-13T16:33:52;141.65;;;18.45;;
12114;SDS011;6121;49.810;6.418;2023-03-13T16:36:20;149.73;;;19.42;;